sensor_id;sensor_type;location;lat;lon;timestamp;temperature;humidity
45315;SHT31;31051;51.540;5.852;2023-05-10T00:09:30;12.9;91.9
45315;SHT31;31051;51.540;5.852;2023-05-10T00:22:29;12.8;92.1
45315;SHT31;31051;51.540;5.852;2023-05-10T00:35:28;12.7;92.2
45315;SHT31;31051;51.540;5.852;2023-05-10T00:48:28;12.6;92.4
45315;SHT31;31051;51.540;5.852;2023-05-10T01:01:27;12.6;92.4
45315;SHT31;31051;51.540;5.852;2023-05-10T01:14:26;12.5;92.5
45315;SHT31;31051;51.540;5.852;2023-05-10T01:27:26;12.5;92.4
45315;SHT31;31051;51.540;5.852;2023-05-10T01:40:25;12.5;92.3
45315;SHT31;31051;51.540;5.852;2023-05-10T01:53:24;12.6;92.2
45315;SHT31;31051;51.540;5.852;2023-05-10T02:06:24;12.6;92.4
45315;SHT31;31051;51.540;5.852;2023-05-10T02:19:23;12.6;92.6
45315;SHT31;31051;51.540;5.852;2023-05-10T02:32:22;12.7;92.6
45315;SHT31;31051;51.540;5.852;2023-05-10T02:45:22;12.9;92.2
45315;SHT31;31051;51.540;5.852;2023-05-10T02:58:21;13.0;92.0
45315;SHT31;31051;51.540;5.852;2023-05-10T03:11:20;13.1;91.7
45315;SHT31;31051;51.540;5.852;2023-05-10T03:24:20;13.0;91.2
45315;SHT31;31051;51.540;5.852;2023-05-10T03:37:19;13.0;91.2
45315;SHT31;31051;51.540;5.852;2023-05-10T03:50:18;13.0;90.1
45315;SHT31;31051;51.540;5.852;2023-05-10T04:03:18;13.0;89.9
45315;SHT31;31051;51.540;5.852;2023-05-10T04:16:17;13.0;90.0
45315;SHT31;31051;51.540;5.852;2023-05-10T04:29:16;13.0;90.4
45315;SHT31;31051;51.540;5.852;2023-05-10T04:42:16;13.0;90.9
45315;SHT31;31051;51.540;5.852;2023-05-10T04:55:15;13.0;90.9
45315;SHT31;31051;51.540;5.852;2023-05-10T05:08:14;13.0;90.9
45315;SHT31;31051;51.540;5.852;2023-05-10T05:21:14;13.0;90.8
45315;SHT31;31051;51.540;5.852;2023-05-10T05:34:13;12.9;91.0
45315;SHT31;31051;51.540;5.852;2023-05-10T05:47:12;12.6;90.4
45315;SHT31;31051;51.540;5.852;2023-05-10T06:00:12;12.7;89.8
45315;SHT31;31051;51.540;5.852;2023-05-10T06:13:11;12.8;88.4
45315;SHT31;31051;51.540;5.852;2023-05-10T06:26:10;13.0;87.1
45315;SHT31;31051;51.540;5.852;2023-05-10T06:39:10;13.0;86.1
45315;SHT31;31051;51.540;5.852;2023-05-10T06:52:09;13.1;86.4
45315;SHT31;31051;51.540;5.852;2023-05-10T07:05:08;13.2;86.8
45315;SHT31;31051;51.540;5.852;2023-05-10T07:18:08;13.1;87.0
45315;SHT31;31051;51.540;5.852;2023-05-10T07:31:07;13.3;85.8
45315;SHT31;31051;51.540;5.852;2023-05-10T07:44:06;13.4;85.8
45315;SHT31;31051;51.540;5.852;2023-05-10T07:57:06;13.4;86.8
45315;SHT31;31051;51.540;5.852;2023-05-10T08:10:05;13.3;87.7
45315;SHT31;31051;51.540;5.852;2023-05-10T08:23:05;13.4;87.3
45315;SHT31;31051;51.540;5.852;2023-05-10T08:36:04;13.4;86.7
45315;SHT31;31051;51.540;5.852;2023-05-10T08:49:03;13.5;86.9
45315;SHT31;31051;51.540;5.852;2023-05-10T09:02:02;13.7;86.2
45315;SHT31;31051;51.540;5.852;2023-05-10T09:15:02;13.4;87.1
45315;SHT31;31051;51.540;5.852;2023-05-10T09:28:01;13.5;87.9
45315;SHT31;31051;51.540;5.852;2023-05-10T09:41:00;13.8;85.4
45315;SHT31;31051;51.540;5.852;2023-05-10T09:54:00;13.8;84.2
45315;SHT31;31051;51.540;5.852;2023-05-10T10:06:59;14.1;82.7
45315;SHT31;31051;51.540;5.852;2023-05-10T10:19:58;14.4;82.5
45315;SHT31;31051;51.540;5.852;2023-05-10T10:32:58;14.5;80.7
45315;SHT31;31051;51.540;5.852;2023-05-10T10:45:57;15.3;78.8
45315;SHT31;31051;51.540;5.852;2023-05-10T10:58:56;15.7;75.1
45315;SHT31;31051;51.540;5.852;2023-05-10T11:11:56;14.9;80.0
45315;SHT31;31051;51.540;5.852;2023-05-10T11:24:55;14.8;79.6
45315;SHT31;31051;51.540;5.852;2023-05-10T11:37:55;15.5;79.7
45315;SHT31;31051;51.540;5.852;2023-05-10T11:50:54;16.3;75.8
45315;SHT31;31051;51.540;5.852;2023-05-10T12:03:53;17.2;70.4
45315;SHT31;31051;51.540;5.852;2023-05-10T12:16:53;15.6;77.8
45315;SHT31;31051;51.540;5.852;2023-05-10T12:29:52;14.3;84.8
45315;SHT31;31051;51.540;5.852;2023-05-10T12:42:51;14.7;86.7
45315;SHT31;31051;51.540;5.852;2023-05-10T12:55:51;15.2;82.3
45315;SHT31;31051;51.540;5.852;2023-05-10T13:08:50;14.3;81.3
45315;SHT31;31051;51.540;5.852;2023-05-10T13:21:49;13.9;82.6
45315;SHT31;31051;51.540;5.852;2023-05-10T13:34:49;13.8;85.7
45315;SHT31;31051;51.540;5.852;2023-05-10T13:47:48;14.2;85.7
45315;SHT31;31051;51.540;5.852;2023-05-10T14:00:48;14.9;84.7
45315;SHT31;31051;51.540;5.852;2023-05-10T14:13:47;16.0;78.3
45315;SHT31;31051;51.540;5.852;2023-05-10T14:26:46;15.8;79.1
45315;SHT31;31051;51.540;5.852;2023-05-10T14:39:46;15.5;80.2
45315;SHT31;31051;51.540;5.852;2023-05-10T14:52:45;15.1;82.2
45315;SHT31;31051;51.540;5.852;2023-05-10T15:05:44;14.9;83.4
45315;SHT31;31051;51.540;5.852;2023-05-10T15:18:44;15.0;82.8
45315;SHT31;31051;51.540;5.852;2023-05-10T15:31:43;14.6;84.1
45315;SHT31;31051;51.540;5.852;2023-05-10T15:44:42;14.4;86.1
45315;SHT31;31051;51.540;5.852;2023-05-10T15:57:42;14.6;86.0
45315;SHT31;31051;51.540;5.852;2023-05-10T16:10:41;14.7;85.2
45315;SHT31;31051;51.540;5.852;2023-05-10T16:23:40;14.9;84.3
45315;SHT31;31051;51.540;5.852;2023-05-10T16:36:40;14.7;84.3
45315;SHT31;31051;51.540;5.852;2023-05-10T16:49:39;14.4;87.0
45315;SHT31;31051;51.540;5.852;2023-05-10T17:02:38;14.3;88.7
45315;SHT31;31051;51.540;5.852;2023-05-10T17:15:38;14.3;88.1
45315;SHT31;31051;51.540;5.852;2023-05-10T17:28:37;14.4;88.0
45315;SHT31;31051;51.540;5.852;2023-05-10T17:41:37;14.4;87.5
45315;SHT31;31051;51.540;5.852;2023-05-10T17:54:36;14.1;88.1
45315;SHT31;31051;51.540;5.852;2023-05-10T18:07:35;13.9;86.9
45315;SHT31;31051;51.540;5.852;2023-05-10T18:20:35;13.8;85.2
45315;SHT31;31051;51.540;5.852;2023-05-10T18:33:34;13.8;84.2
45315;SHT31;31051;51.540;5.852;2023-05-10T18:46:33;13.6;85.2
45315;SHT31;31051;51.540;5.852;2023-05-10T18:59:33;13.3;86.8
45315;SHT31;31051;51.540;5.852;2023-05-10T19:12:32;13.0;88.0
45315;SHT31;31051;51.540;5.852;2023-05-10T19:25:31;12.8;89.2
45315;SHT31;31051;51.540;5.852;2023-05-10T19:38:30;12.7;89.4
45315;SHT31;31051;51.540;5.852;2023-05-10T19:51:30;12.8;89.4
45315;SHT31;31051;51.540;5.852;2023-05-10T20:04:29;12.8;89.3
45315;SHT31;31051;51.540;5.852;2023-05-10T20:17:28;13.0;89.4
45315;SHT31;31051;51.540;5.852;2023-05-10T20:30:28;13.1;88.9
45315;SHT31;31051;51.540;5.852;2023-05-10T20:43:27;12.9;89.5
45315;SHT31;31051;51.540;5.852;2023-05-10T20:56:26;12.8;89.9
45315;SHT31;31051;51.540;5.852;2023-05-10T21:09:26;12.7;90.6
45315;SHT31;31051;51.540;5.852;2023-05-10T21:22:25;12.5;91.2
45315;SHT31;31051;51.540;5.852;2023-05-10T21:35:25;12.5;91.6
45315;SHT31;31051;51.540;5.852;2023-05-10T21:48:24;12.5;91.8
45315;SHT31;31051;51.540;5.852;2023-05-10T22:01:23;12.5;91.9
45315;SHT31;31051;51.540;5.852;2023-05-10T22:14:22;12.4;91.9
45315;SHT31;31051;51.540;5.852;2023-05-10T22:27:22;12.5;91.9
45315;SHT31;31051;51.540;5.852;2023-05-10T22:40:21;12.5;91.8
45315;SHT31;31051;51.540;5.852;2023-05-10T22:53:20;12.4;92.0
45315;SHT31;31051;51.540;5.852;2023-05-10T23:06:20;12.4;92.1
45315;SHT31;31051;51.540;5.852;2023-05-10T23:19:19;12.2;92.3
45315;SHT31;31051;51.540;5.852;2023-05-10T23:32:18;12.2;92.6
45315;SHT31;31051;51.540;5.852;2023-05-10T23:45:18;12.1;92.7
45315;SHT31;31051;51.540;5.852;2023-05-10T23:58:17;12.1;92.7
